Time;durP1;ratioP1;P1;durP2;ratioP2;P2;SDS_P1;SDS_P2;PMS_P1;PMS_P2;Temp;Humidity;BMP_temperature;BMP_pressure;BME280_temperature;BME280_humidity;BME280_pressure;Samples;Min_cycle;Max_cycle;Signal;HPM_P1;HPM_P2
2023/04/27 00:01:55;;;;;;;;;;;1.90;99.90;;;;;;5056871;28;20467;-90
2023/04/27 00:04:21;;;;;;;;;;;1.90;99.90;;;;;;5058088;28;19935;-90
2023/04/27 00:06:46;;;;;;;;;;;2.00;99.90;;;;;;5061738;28;19964;-90
2023/04/27 00:09:12;;;;;;;;;;;1.90;99.90;;;;;;5043439;28;19924;-89
2023/04/27 00:11:37;;;;;;;;;;;1.90;99.90;;;;;;5027560;28;19925;-90
2023/04/27 00:14:03;;;;;;;;;;;1.90;99.90;;;;;;5064186;28;19925;-89
2023/04/27 00:16:29;;;;;;;;;;;2.00;99.90;;;;;;5044327;28;20369;-90
2023/04/27 00:18:54;;;;;;;;;;;2.00;99.90;;;;;;5063474;28;19940;-89
2023/04/27 00:21:20;;;;;;;;;;;2.10;99.90;;;;;;5079881;28;19947;-91
2023/04/27 00:23:45;;;;;;;;;;;2.10;99.90;;;;;;5081479;28;20483;-90
2023/04/27 00:26:11;;;;;;;;;;;2.10;99.90;;;;;;5060341;28;19924;-90
2023/04/27 00:28:37;;;;;;;;;;;2.20;99.90;;;;;;5085629;28;19989;-89
2023/04/27 00:31:03;;;;;;;;;;;2.10;99.90;;;;;;5079451;28;19995;-90
2023/04/27 00:33:29;;;;;;;;;;;2.20;99.90;;;;;;5064602;28;19931;-89
2023/04/27 00:35:58;;;;;;;;;;;2.20;99.90;;;;;;5072348;28;19942;-90
2023/04/27 00:38:23;;;;;;;;;;;2.20;99.90;;;;;;5078605;28;19996;-89
2023/04/27 00:40:49;;;;;;;;;;;1.90;99.90;;;;;;5076074;28;19924;-90
2023/04/27 00:43:15;;;;;;;;;;;2.00;99.90;;;;;;5075620;28;19992;-90
2023/04/27 00:45:44;;;;;;;;;;;2.00;99.90;;;;;;5063421;28;19924;-88
2023/04/27 00:48:10;;;;;;;;;;;2.00;99.90;;;;;;5063066;28;19987;-90
2023/04/27 00:50:37;;;;;;;;;;;1.90;99.90;;;;;;5077530;28;19924;-91
2023/04/27 00:53:04;;;;;;;;;;;2.00;99.90;;;;;;5079319;28;20011;-90
2023/04/27 00:55:30;;;;;;;;;;;1.90;99.90;;;;;;5076541;28;19931;-90
2023/04/27 00:57:55;;;;;;;;;;;2.00;99.90;;;;;;5063130;28;20395;-91
2023/04/27 01:00:21;;;;;;;;;;;2.00;99.90;;;;;;5079654;28;19983;-90
2023/04/27 01:02:47;;;;;;;;;;;2.00;99.90;;;;;;5080253;28;19924;-90
2023/04/27 01:05:13;;;;;;;;;;;2.00;99.90;;;;;;5065186;28;19931;-90
2023/04/27 01:07:39;;;;;;;;;;;2.00;99.90;;;;;;5078800;28;19924;-89
2023/04/27 01:10:06;;;;;;;;;;;2.00;99.90;;;;;;5061159;28;20241;-90
2023/04/27 01:12:31;;;;;;;;;;;2.00;99.90;;;;;;5080814;28;19924;-90
2023/04/27 01:14:57;;;;;;;;;;;1.90;99.90;;;;;;5081908;28;20013;-90
2023/04/27 01:17:24;;;;;;;;;;;1.80;99.90;;;;;;5082754;28;19924;-90
2023/04/27 01:19:50;;;;;;;;;;;1.90;99.90;;;;;;5068783;28;19923;-89
2023/04/27 01:22:16;;;;;;;;;;;1.80;99.90;;;;;;5067253;28;19931;-90
2023/04/27 01:24:42;;;;;;;;;;;1.80;99.90;;;;;;5067581;28;19925;-91
2023/04/27 01:27:07;;;;;;;;;;;1.80;99.90;;;;;;5067405;28;20008;-90
2023/04/27 01:29:33;;;;;;;;;;;2.00;99.90;;;;;;5067843;28;19958;-90
2023/04/27 01:31:58;;;;;;;;;;;1.80;99.90;;;;;;5068758;28;19966;-90
2023/04/27 01:34:24;;;;;;;;;;;1.70;99.90;;;;;;5064521;28;19928;-90
2023/04/27 01:36:50;;;;;;;;;;;1.70;99.90;;;;;;5084609;28;19985;-90
2023/04/27 01:39:15;;;;;;;;;;;1.60;99.90;;;;;;5083182;28;19924;-90
2023/04/27 01:41:41;;;;;;;;;;;1.50;99.90;;;;;;5063869;28;19979;-90
2023/04/27 01:44:06;;;;;;;;;;;1.40;99.90;;;;;;5067608;28;19930;-90
2023/04/27 01:46:32;;;;;;;;;;;1.40;99.90;;;;;;5082855;28;20276;-90
2023/04/27 01:48:58;;;;;;;;;;;1.30;99.90;;;;;;5084595;28;19924;-90
2023/04/27 01:51:23;;;;;;;;;;;1.40;99.90;;;;;;5080415;28;20368;-90
2023/04/27 01:53:49;;;;;;;;;;;1.40;99.90;;;;;;5061716;28;19924;-90
2023/04/27 01:56:15;;;;;;;;;;;1.40;99.90;;;;;;5079062;28;19928;-90
2023/04/27 01:58:41;;;;;;;;;;;1.90;99.90;;;;;;5076469;28;20288;-89
2023/04/27 02:01:06;;;;;;;;;;;1.40;99.90;;;;;;5082991;28;19924;-89
2023/04/27 02:03:32;;;;;;;;;;;1.30;99.90;;;;;;5082939;28;20307;-90
2023/04/27 02:05:57;;;;;;;;;;;1.30;99.90;;;;;;5062269;28;19925;-89
2023/04/27 02:08:23;;;;;;;;;;;1.50;99.90;;;;;;5083160;28;19924;-90
2023/04/27 02:10:49;;;;;;;;;;;1.30;99.90;;;;;;5066290;28;19946;-89
2023/04/27 02:13:14;;;;;;;;;;;1.30;99.90;;;;;;5074100;28;19938;-90
2023/04/27 02:15:40;;;;;;;;;;;1.20;99.90;;;;;;5082057;28;19939;-89
2023/04/27 02:18:05;;;;;;;;;;;1.20;99.90;;;;;;5081904;28;19955;-89
2023/04/27 02:20:31;;;;;;;;;;;1.10;99.90;;;;;;5083574;28;19924;-89
2023/04/27 02:22:57;;;;;;;;;;;1.10;99.90;;;;;;5082385;28;19979;-89
2023/04/27 02:25:23;;;;;;;;;;;1.40;99.90;;;;;;5060699;28;20007;-90
2023/04/27 02:27:49;;;;;;;;;;;1.10;99.90;;;;;;5079381;28;19992;-90
2023/04/27 02:30:14;;;;;;;;;;;1.70;99.90;;;;;;5057943;28;19987;-89
2023/04/27 02:32:40;;;;;;;;;;;1.10;99.90;;;;;;5061525;28;19932;-89
2023/04/27 02:35:06;;;;;;;;;;;1.00;99.90;;;;;;5061439;28;20307;-89
2023/04/27 02:37:32;;;;;;;;;;;2.60;99.90;;;;;;5065681;28;19935;-90
2023/04/27 02:39:58;;;;;;;;;;;0.90;99.90;;;;;;5081087;28;19934;-89
2023/04/27 02:42:24;;;;;;;;;;;0.90;99.90;;;;;;5078444;28;19995;-90
2023/04/27 02:44:50;;;;;;;;;;;1.20;99.90;;;;;;5078976;28;20273;-89
2023/04/27 02:47:15;;;;;;;;;;;0.80;99.90;;;;;;5078590;28;20383;-88
2023/04/27 02:49:43;;;;;;;;;;;0.80;99.90;;;;;;5085432;28;20297;-89
2023/04/27 02:52:08;;;;;;;;;;;0.90;99.90;;;;;;5065618;28;19932;-90
2023/04/27 02:54:34;;;;;;;;;;;0.90;99.90;;;;;;5063139;28;19995;-89
2023/04/27 02:57:00;;;;;;;;;;;0.90;99.90;;;;;;5077411;28;19935;-90
2023/04/27 02:59:26;;;;;;;;;;;0.90;99.90;;;;;;5061162;28;19931;-90
2023/04/27 03:01:51;;;;;;;;;;;0.90;99.90;;;;;;5061321;28;19924;-89
2023/04/27 03:04:17;;;;;;;;;;;0.90;99.90;;;;;;5048289;28;19924;-90
2023/04/27 03:06:43;;;;;;;;;;;0.90;99.90;;;;;;5063997;28;19946;-89
2023/04/27 03:09:12;;;;;;;;;;;0.80;99.90;;;;;;5065049;28;19924;-89
2023/04/27 03:11:38;;;;;;;;;;;1.50;99.90;;;;;;5082020;28;19943;-90
2023/04/27 03:14:07;;;;;;;;;;;1.50;99.90;;;;;;5077251;28;19930;-89
2023/04/27 03:16:33;;;;;;;;;;;0.80;99.90;;;;;;5050256;28;20010;-89
2023/04/27 03:18:59;;;;;;;;;;;0.80;99.90;;;;;;5074347;28;19925;-89
2023/04/27 03:21:25;;;;;;;;;;;0.80;99.90;;;;;;5077864;28;19928;-89
2023/04/27 03:23:51;;;;;;;;;;;0.70;99.90;;;;;;5075523;28;19924;-89
2023/04/27 03:26:17;;;;;;;;;;;1.30;99.90;;;;;;5099039;28;19924;-89
2023/04/27 03:28:43;;;;;;;;;;;0.60;99.90;;;;;;5082181;28;19946;-90
2023/04/27 03:31:09;;;;;;;;;;;0.90;99.90;;;;;;5057795;28;19925;-89
2023/04/27 03:33:36;;;;;;;;;;;1.20;99.90;;;;;;5077390;28;19971;-89
2023/04/27 03:36:03;;;;;;;;;;;0.50;99.90;;;;;;5079814;28;19931;-89
2023/04/27 03:38:29;;;;;;;;;;;0.50;99.90;;;;;;5079676;28;19924;-88
2023/04/27 03:40:54;;;;;;;;;;;0.40;99.90;;;;;;5077431;28;19936;-88
2023/04/27 03:43:20;;;;;;;;;;;0.80;99.90;;;;;;5081659;28;19928;-89
2023/04/27 03:45:46;;;;;;;;;;;0.40;99.90;;;;;;5075960;28;19987;-88
2023/04/27 03:48:13;;;;;;;;;;;0.40;99.90;;;;;;5076404;28;19932;-88
2023/04/27 03:50:38;;;;;;;;;;;0.40;99.90;;;;;;5079517;28;19946;-89
2023/04/27 03:53:04;;;;;;;;;;;0.40;99.90;;;;;;5076158;28;19932;-89
2023/04/27 03:55:30;;;;;;;;;;;0.40;99.90;;;;;;5056961;28;19924;-90
2023/04/27 03:57:55;;;;;;;;;;;0.30;99.90;;;;;;5065599;28;19931;-88
2023/04/27 04:00:21;;;;;;;;;;;0.30;99.90;;;;;;5059406;28;20272;-89
2023/04/27 04:02:47;;;;;;;;;;;0.30;99.90;;;;;;5065600;28;19935;-90
2023/04/27 04:05:14;;;;;;;;;;;0.30;99.90;;;;;;5078108;28;19924;-89
2023/04/27 04:07:42;;;;;;;;;;;0.20;99.90;;;;;;5080101;28;19928;-88
2023/04/27 04:10:08;;;;;;;;;;;0.20;99.90;;;;;;5084930;28;19924;-89
2023/04/27 04:12:34;;;;;;;;;;;0.10;99.90;;;;;;5065360;28;19931;-88
2023/04/27 04:14:59;;;;;;;;;;;0.10;99.90;;;;;;5070643;28;19924;-88
2023/04/27 04:17:26;;;;;;;;;;;0.10;99.90;;;;;;5063414;28;19969;-89
2023/04/27 04:19:51;;;;;;;;;;;0.10;99.90;;;;;;5065363;28;19924;-89
2023/04/27 04:22:17;;;;;;;;;;;0.10;99.90;;;;;;5079604;28;19928;-89
2023/04/27 04:24:42;;;;;;;;;;;0.10;99.90;;;;;;5082157;28;19924;-89
2023/04/27 04:27:08;;;;;;;;;;;0.10;99.90;;;;;;5081150;28;19924;-89
2023/04/27 04:29:34;;;;;;;;;;;0.20;99.90;;;;;;5081606;28;19987;-90
2023/04/27 04:31:59;;;;;;;;;;;0.30;99.90;;;;;;5065601;28;19924;-89
2023/04/27 04:34:26;;;;;;;;;;;0.40;99.90;;;;;;5066866;28;19924;-89
2023/04/27 04:36:51;;;;;;;;;;;0.40;99.90;;;;;;5069123;28;19924;-89
2023/04/27 04:39:21;;;;;;;;;;;0.60;99.90;;;;;;5084882;28;19930;-90
2023/04/27 04:41:48;;;;;;;;;;;0.60;99.90;;;;;;5069612;28;20307;-89
2023/04/27 04:44:14;;;;;;;;;;;0.70;99.90;;;;;;5103676;28;20022;-89
2023/04/27 04:46:40;;;;;;;;;;;0.70;99.90;;;;;;5068055;28;19924;-89
2023/04/27 04:49:06;;;;;;;;;;;0.70;99.90;;;;;;5085020;28;19968;-89
2023/04/27 04:51:31;;;;;;;;;;;0.70;99.90;;;;;;5081720;28;19932;-89
2023/04/27 04:53:57;;;;;;;;;;;0.70;99.90;;;;;;5065527;28;19942;-89
2023/04/27 04:56:23;;;;;;;;;;;0.70;99.90;;;;;;5066728;28;19924;-88
2023/04/27 04:58:48;;;;;;;;;;;0.70;99.90;;;;;;5049526;28;19924;-88
2023/04/27 05:01:14;;;;;;;;;;;0.70;99.90;;;;;;5083923;28;19935;-89
2023/04/27 05:03:39;;;;;;;;;;;0.80;99.90;;;;;;5085279;28;19924;-89
2023/04/27 05:06:05;;;;;;;;;;;1.30;99.90;;;;;;5067910;28;19924;-89
2023/04/27 05:08:31;;;;;;;;;;;0.90;99.90;;;;;;5083354;28;19925;-89
2023/04/27 05:10:57;;;;;;;;;;;0.90;99.90;;;;;;5068532;28;19924;-88
2023/04/27 05:13:23;;;;;;;;;;;0.90;99.90;;;;;;5091902;28;20308;-89
2023/04/27 05:15:49;;;;;;;;;;;1.00;99.90;;;;;;5084899;28;19924;-89
2023/04/27 05:18:15;;;;;;;;;;;1.10;99.90;;;;;;5083518;28;19996;-88
2023/04/27 05:20:41;;;;;;;;;;;1.20;99.90;;;;;;5046929;28;20622;-90
2023/04/27 05:23:06;;;;;;;;;;;1.20;99.90;;;;;;5077494;28;19928;-90
2023/04/27 05:25:32;;;;;;;;;;;1.40;99.90;;;;;;5084728;28;19934;-88
2023/04/27 05:27:58;;;;;;;;;;;1.50;99.90;;;;;;5077004;28;20311;-89
2023/04/27 05:30:24;;;;;;;;;;;1.70;99.90;;;;;;5065408;28;19932;-90
2023/04/27 05:32:49;;;;;;;;;;;1.80;99.90;;;;;;5069005;28;19946;-90
2023/04/27 05:35:15;;;;;;;;;;;2.00;99.90;;;;;;5084132;28;20003;-90
2023/04/27 05:37:41;;;;;;;;;;;2.10;99.90;;;;;;5085443;28;19932;-88
2023/04/27 05:40:09;;;;;;;;;;;2.20;99.90;;;;;;5060574;28;19924;-89
2023/04/27 05:42:35;;;;;;;;;;;2.40;99.90;;;;;;5084265;28;19931;-90
2023/04/27 05:45:02;;;;;;;;;;;2.50;99.90;;;;;;5067045;28;19928;-89
2023/04/27 05:47:27;;;;;;;;;;;2.70;99.90;;;;;;5080442;28;20386;-90
2023/04/27 05:49:53;;;;;;;;;;;2.80;99.90;;;;;;5082143;28;19924;-90
2023/04/27 05:52:19;;;;;;;;;;;2.90;99.90;;;;;;5084390;28;19931;-90
2023/04/27 05:54:49;;;;;;;;;;;2.90;99.90;;;;;;5084882;28;19931;-90
2023/04/27 05:57:15;;;;;;;;;;;3.00;99.90;;;;;;5084285;28;19935;-90
2023/04/27 05:59:41;;;;;;;;;;;3.10;99.90;;;;;;5070615;28;19983;-89
2023/04/27 06:02:07;;;;;;;;;;;3.20;99.90;;;;;;5095033;28;19938;-89
2023/04/27 06:04:33;;;;;;;;;;;3.30;99.90;;;;;;5094598;28;19945;-89
2023/04/27 06:06:58;;;;;;;;;;;3.40;99.90;;;;;;5096889;28;19924;-92
2023/04/27 06:09:24;;;;;;;;;;;3.50;99.90;;;;;;5094068;28;19928;-92
2023/04/27 06:11:50;;;;;;;;;;;3.60;99.90;;;;;;5064055;28;19946;-92
2023/04/27 06:14:16;;;;;;;;;;;3.70;99.90;;;;;;5060555;28;19947;-92
2023/04/27 06:16:42;;;;;;;;;;;3.70;99.90;;;;;;5078754;28;19931;-90
2023/04/27 06:19:09;;;;;;;;;;;4.70;99.90;;;;;;5069092;28;19924;-92
2023/04/27 06:21:35;;;;;;;;;;;3.80;99.90;;;;;;5061494;28;19938;-92
2023/04/27 06:24:00;;;;;;;;;;;4.00;99.90;;;;;;5044025;28;19985;-92
2023/04/27 06:26:27;;;;;;;;;;;4.10;99.90;;;;;;5052963;28;19963;-92
2023/04/27 06:28:53;;;;;;;;;;;4.30;99.90;;;;;;5071135;28;19925;-91
2023/04/27 06:31:19;;;;;;;;;;;4.30;99.90;;;;;;5083629;28;19932;-92
2023/04/27 06:33:44;;;;;;;;;;;4.30;99.90;;;;;;5056906;28;19928;-91
2023/04/27 06:36:10;;;;;;;;;;;4.50;99.90;;;;;;5048429;28;19960;-87
2023/04/27 06:38:36;;;;;;;;;;;4.50;99.90;;;;;;5064592;28;19925;-87
2023/04/27 06:41:02;;;;;;;;;;;4.60;99.90;;;;;;5065614;28;19932;-86
2023/04/27 06:43:28;;;;;;;;;;;4.70;99.90;;;;;;5055362;28;19924;-86
2023/04/27 06:45:53;;;;;;;;;;;4.50;99.90;;;;;;5073975;28;19931;-89
2023/04/27 06:48:19;;;;;;;;;;;4.90;99.90;;;;;;5066910;28;19925;-95
2023/04/27 06:50:45;;;;;;;;;;;5.00;99.90;;;;;;5081465;28;19924;-95
2023/04/27 06:53:11;;;;;;;;;;;5.00;99.90;;;;;;5061719;28;19925;-92
2023/04/27 06:55:37;;;;;;;;;;;5.10;99.90;;;;;;5043717;28;19925;-92
2023/04/27 06:58:03;;;;;;;;;;;5.10;99.90;;;;;;5076769;28;19931;-89
2023/04/27 07:00:29;;;;;;;;;;;5.20;99.90;;;;;;5056887;28;19982;-94
2023/04/27 07:02:54;;;;;;;;;;;5.20;99.90;;;;;;5049023;28;20051;-87
2023/04/27 07:05:20;;;;;;;;;;;5.30;99.90;;;;;;5069837;28;19925;-88
2023/04/27 07:07:45;;;;;;;;;;;5.40;99.90;;;;;;5044843;28;19932;-89
2023/04/27 07:10:11;;;;;;;;;;;5.40;99.90;;;;;;5053496;28;19924;-87
2023/04/27 07:12:37;;;;;;;;;;;5.50;99.90;;;;;;5040025;28;20011;-87
2023/04/27 07:15:05;;;;;;;;;;;5.50;99.90;;;;;;5050111;28;19971;-88
2023/04/27 07:17:31;;;;;;;;;;;5.60;99.90;;;;;;5059086;28;19959;-87
2023/04/27 07:19:57;;;;;;;;;;;5.70;99.90;;;;;;5039604;28;19924;-90
2023/04/27 07:22:22;;;;;;;;;;;5.70;99.90;;;;;;5058560;28;20058;-88
2023/04/27 07:24:48;;;;;;;;;;;5.90;99.90;;;;;;5053971;28;19932;-89
2023/04/27 07:27:14;;;;;;;;;;;6.00;99.90;;;;;;5068913;28;19936;-88
2023/04/27 07:29:40;;;;;;;;;;;6.10;99.90;;;;;;5066629;28;19929;-89
2023/04/27 07:32:06;;;;;;;;;;;6.20;99.90;;;;;;5054527;28;19925;-89
2023/04/27 07:34:31;;;;;;;;;;;6.20;99.90;;;;;;5052372;28;19925;-87
2023/04/27 07:36:57;;;;;;;;;;;6.30;99.90;;;;;;5057620;28;19925;-89
2023/04/27 07:39:23;;;;;;;;;;;6.30;99.90;;;;;;5054710;28;19925;-89
2023/04/27 07:41:49;;;;;;;;;;;6.40;99.90;;;;;;5074074;28;19925;-88
2023/04/27 07:44:15;;;;;;;;;;;6.50;99.90;;;;;;5057673;28;19941;-87
2023/04/27 07:46:41;;;;;;;;;;;6.60;99.90;;;;;;5056710;28;19991;-88
2023/04/27 07:49:06;;;;;;;;;;;6.70;99.90;;;;;;5072471;28;19940;-88
2023/04/27 07:51:33;;;;;;;;;;;6.70;99.90;;;;;;5073768;28;19925;-88
2023/04/27 07:53:59;;;;;;;;;;;6.80;99.90;;;;;;5071365;28;19981;-87
2023/04/27 07:56:25;;;;;;;;;;;8.00;99.90;;;;;;5030678;28;19983;-88
2023/04/27 07:58:50;;;;;;;;;;;7.00;99.90;;;;;;5074109;28;19936;-87
2023/04/27 08:01:16;;;;;;;;;;;7.00;99.90;;;;;;5053646;28;20437;-87
2023/04/27 08:03:41;;;;;;;;;;;7.10;99.90;;;;;;5063074;28;19925;-88
2023/04/27 08:06:07;;;;;;;;;;;7.20;99.90;;;;;;5059124;28;19947;-87
2023/04/27 08:08:33;;;;;;;;;;;7.30;99.90;;;;;;5059893;28;21476;-88
2023/04/27 08:10:58;;;;;;;;;;;7.40;99.90;;;;;;5076610;28;19924;-88
2023/04/27 08:13:24;;;;;;;;;;;7.40;99.90;;;;;;5061433;28;19936;-87
2023/04/27 08:15:50;;;;;;;;;;;7.50;99.90;;;;;;5060756;28;19958;-87
2023/04/27 08:18:16;;;;;;;;;;;7.50;99.90;;;;;;5058325;28;19999;-88
2023/04/27 08:20:42;;;;;;;;;;;7.60;99.90;;;;;;5054849;28;19924;-87
2023/04/27 08:23:08;;;;;;;;;;;7.70;99.90;;;;;;5055378;28;19950;-87
2023/04/27 08:25:36;;;;;;;;;;;7.70;99.90;;;;;;5038335;28;19933;-87
2023/04/27 08:28:02;;;;;;;;;;;7.80;99.90;;;;;;5042169;28;19929;-87
2023/04/27 08:30:28;;;;;;;;;;;7.80;99.90;;;;;;5037858;28;20000;-88
2023/04/27 08:32:56;;;;;;;;;;;7.90;99.90;;;;;;5056883;28;19971;-87
2023/04/27 08:35:22;;;;;;;;;;;8.00;99.90;;;;;;5057698;28;19943;-89
2023/04/27 08:37:48;;;;;;;;;;;8.20;99.90;;;;;;5040406;28;19976;-88
2023/04/27 08:40:13;;;;;;;;;;;8.20;99.90;;;;;;5055221;28;19932;-87
2023/04/27 08:42:40;;;;;;;;;;;8.20;99.90;;;;;;5042457;28;19925;-89
2023/04/27 08:45:07;;;;;;;;;;;8.30;99.90;;;;;;5059565;28;19929;-88
2023/04/27 08:47:33;;;;;;;;;;;8.50;99.90;;;;;;5057706;28;19981;-88
2023/04/27 08:49:58;;;;;;;;;;;8.60;99.90;;;;;;5042645;28;19924;-88
2023/04/27 08:52:27;;;;;;;;;;;8.70;99.90;;;;;;5042500;28;19929;-87
2023/04/27 08:54:53;;;;;;;;;;;8.80;99.90;;;;;;5030330;28;19991;-88
2023/04/27 08:57:18;;;;;;;;;;;8.90;99.90;;;;;;5035780;28;19925;-88
2023/04/27 08:59:44;;;;;;;;;;;8.90;99.90;;;;;;5050962;28;19988;-87
2023/04/27 09:02:19;;;;;;;;;;;9.80;99.90;;;;;;5040863;28;19934;-87
2023/04/27 09:04:45;;;;;;;;;;;9.10;99.90;;;;;;5029694;28;19963;-88
2023/04/27 09:07:11;;;;;;;;;;;9.30;99.90;;;;;;5058135;28;19931;-87
2023/04/27 09:09:36;;;;;;;;;;;9.50;99.90;;;;;;5049944;28;19936;-87
2023/04/27 09:12:12;;;;;;;;;;;9.60;99.90;;;;;;5040399;28;20376;-88
2023/04/27 09:14:37;;;;;;;;;;;9.70;99.90;;;;;;5058057;28;20301;-88
2023/04/27 09:17:03;;;;;;;;;;;9.80;99.90;;;;;;5033619;28;19987;-87
2023/04/27 09:19:29;;;;;;;;;;;9.80;99.90;;;;;;5067221;28;19933;-91
2023/04/27 09:22:08;;;;;;;;;;;11.10;99.90;;;;;;5058997;28;19944;-89
2023/04/27 09:24:34;;;;;;;;;;;9.70;98.10;;;;;;5071648;28;19974;-90
2023/04/27 09:27:01;;;;;;;;;;;9.90;99.90;;;;;;5075972;28;20069;-89
2023/04/27 09:29:31;;;;;;;;;;;9.90;98.40;;;;;;5077337;28;19929;-89
2023/04/27 09:31:56;;;;;;;;;;;9.80;96.10;;;;;;5050950;28;19952;-90
2023/04/27 09:34:22;;;;;;;;;;;9.70;96.50;;;;;;5079560;28;19925;-89
2023/04/27 09:36:48;;;;;;;;;;;9.70;97.60;;;;;;5046583;28;19988;-90
2023/04/27 09:39:14;;;;;;;;;;;9.80;99.30;;;;;;5056989;28;20379;-92
2023/04/27 09:41:40;;;;;;;;;;;10.00;99.90;;;;;;5079374;28;20447;-91
2023/04/27 09:44:06;;;;;;;;;;;10.20;99.60;;;;;;5080626;28;19932;-91
2023/04/27 09:46:32;;;;;;;;;;;10.40;99.80;;;;;;5080770;28;19931;-91
2023/04/27 09:48:58;;;;;;;;;;;10.50;97.70;;;;;;5080299;28;19925;-91
2023/04/27 09:51:23;;;;;;;;;;;10.60;97.00;;;;;;5064755;28;19925;-92
2023/04/27 09:53:51;;;;;;;;;;;10.70;97.70;;;;;;5080814;28;19964;-90
2023/04/27 09:56:24;;;;;;;;;;;10.80;96.70;;;;;;5080390;28;19924;-92
2023/04/27 09:58:50;;;;;;;;;;;10.80;95.20;;;;;;5074263;28;20500;-91
2023/04/27 10:01:20;;;;;;;;;;;10.70;98.40;;;;;;5079797;28;19928;-93
2023/04/27 10:04:09;;;;;;;;;;;10.80;94.20;;;;;;5064491;28;20431;-92
2023/04/27 10:06:53;;;;;;;;;;;10.90;94.60;;;;;;5044882;28;20015;-92
2023/04/27 10:09:22;;;;;;;;;;;10.90;93.70;;;;;;5063952;28;19925;-91
2023/04/27 10:11:48;;;;;;;;;;;11.00;95.30;;;;;;5078136;28;19971;-92
2023/04/27 10:14:18;;;;;;;;;;;11.00;95.80;;;;;;5063319;28;20037;-92
2023/04/27 10:16:51;;;;;;;;;;;11.10;96.50;;;;;;5062870;28;20424;-91
2023/04/27 10:19:20;;;;;;;;;;;12.10;95.90;;;;;;5080913;28;20291;-92
2023/04/27 10:21:55;;;;;;;;;;;11.00;97.40;;;;;;5069522;28;19924;-91
2023/04/27 10:24:43;;;;;;;;;;;11.00;94.80;;;;;;5070784;28;20291;-90
2023/04/27 10:27:10;;;;;;;;;;;11.00;97.50;;;;;;5055468;28;20299;-92
2023/04/27 10:29:43;;;;;;;;;;;11.00;96.50;;;;;;5081845;28;19925;-91
2023/04/27 10:32:18;;;;;;;;;;;10.90;97.90;;;;;;5065237;28;19988;-92
2023/04/27 10:34:46;;;;;;;;;;;10.90;98.00;;;;;;5072154;28;19925;-92
2023/04/27 10:37:13;;;;;;;;;;;10.90;97.20;;;;;;5055125;28;19931;-91
2023/04/27 10:39:40;;;;;;;;;;;10.90;95.60;;;;;;5071466;28;19984;-92
2023/04/27 10:42:06;;;;;;;;;;;11.00;95.60;;;;;;5091648;28;19932;-91
2023/04/27 10:44:32;;;;;;;;;;;10.90;92.70;;;;;;5081922;28;19970;-91
2023/04/27 10:47:00;;;;;;;;;;;11.00;95.30;;;;;;5064844;28;19929;-90
2023/04/27 10:49:26;;;;;;;;;;;11.20;97.80;;;;;;5079567;28;19924;-92
2023/04/27 10:51:55;;;;;;;;;;;11.20;96.40;;;;;;5063704;28;19991;-92
2023/04/27 10:54:24;;;;;;;;;;;11.40;96.50;;;;;;5079879;28;19931;-91
2023/04/27 10:56:50;;;;;;;;;;;11.50;94.40;;;;;;5079102;28;19925;-92
2023/04/27 10:59:16;;;;;;;;;;;11.50;91.90;;;;;;5080707;28;19932;-92
2023/04/27 11:01:41;;;;;;;;;;;11.50;93.10;;;;;;5058864;28;19999;-91
2023/04/27 11:04:07;;;;;;;;;;;11.50;93.90;;;;;;5074757;28;19932;-92
2023/04/27 11:06:40;;;;;;;;;;;11.50;94.20;;;;;;5079805;28;19924;-93
2023/04/27 11:09:06;;;;;;;;;;;11.60;95.90;;;;;;5080259;28;19932;-91
2023/04/27 11:11:32;;;;;;;;;;;11.50;94.10;;;;;;5080144;28;19932;-90
2023/04/27 11:13:58;;;;;;;;;;;11.40;95.40;;;;;;5047483;28;20009;-91
2023/04/27 11:16:24;;;;;;;;;;;11.50;93.00;;;;;;5083150;28;20375;-91
2023/04/27 11:18:49;;;;;;;;;;;11.50;96.50;;;;;;5080128;28;19925;-90
2023/04/27 11:21:16;;;;;;;;;;;11.60;95.40;;;;;;5065303;28;19964;-91
2023/04/27 11:23:42;;;;;;;;;;;11.60;95.50;;;;;;5075985;28;20402;-91
2023/04/27 11:26:13;;;;;;;;;;;11.80;95.50;;;;;;5065643;28;20015;-91
2023/04/27 11:28:39;;;;;;;;;;;11.90;96.60;;;;;;5076017;28;19980;-91
2023/04/27 11:31:05;;;;;;;;;;;12.00;97.00;;;;;;5063898;28;19929;-91
2023/04/27 11:33:31;;;;;;;;;;;12.00;95.60;;;;;;5061484;28;19924;-92
2023/04/27 11:35:57;;;;;;;;;;;11.90;94.30;;;;;;5069736;28;19987;-93
2023/04/27 11:38:23;;;;;;;;;;;12.00;95.50;;;;;;5060570;28;19929;-91
2023/04/27 11:41:18;;;;;;;;;;;11.90;95.50;;;;;;5062344;28;19924;-90
2023/04/27 11:43:53;;;;;;;;;;;11.80;95.50;;;;;;5064259;28;20028;-90
2023/04/27 11:46:19;;;;;;;;;;;11.90;94.10;;;;;;5058883;28;19925;-92
2023/04/27 11:48:44;;;;;;;;;;;11.90;93.70;;;;;;5082468;28;19971;-91
2023/04/27 11:51:11;;;;;;;;;;;11.90;94.00;;;;;;5084348;28;19931;-92
2023/04/27 11:53:38;;;;;;;;;;;11.70;94.60;;;;;;5068028;28;20342;-91
2023/04/27 11:56:05;;;;;;;;;;;11.60;94.80;;;;;;5086469;28;20359;-91
2023/04/27 11:58:34;;;;;;;;;;;11.50;94.90;;;;;;5095381;28;19947;-90
2023/04/27 12:01:00;;;;;;;;;;;11.40;97.70;;;;;;5078649;28;19924;-91
2023/04/27 12:03:30;;;;;;;;;;;11.40;98.30;;;;;;5087229;28;19931;-93
2023/04/27 12:05:56;;;;;;;;;;;11.40;98.10;;;;;;5085245;28;19931;-90
2023/04/27 12:08:22;;;;;;;;;;;11.20;96.20;;;;;;5084295;28;19925;-92
2023/04/27 12:10:47;;;;;;;;;;;11.20;96.90;;;;;;5083002;28;19924;-92
2023/04/27 12:13:13;;;;;;;;;;;11.20;98.60;;;;;;5083996;28;19946;-92
2023/04/27 12:15:39;;;;;;;;;;;11.30;99.90;;;;;;5053519;28;19958;-91
2023/04/27 12:18:05;;;;;;;;;;;11.30;99.50;;;;;;5084764;28;19928;-92
2023/04/27 12:20:30;;;;;;;;;;;11.20;97.10;;;;;;5070080;28;19924;-91
2023/04/27 12:22:56;;;;;;;;;;;11.30;95.30;;;;;;5069172;28;19967;-92
2023/04/27 12:25:22;;;;;;;;;;;11.20;97.30;;;;;;5085560;28;19995;-92
2023/04/27 12:27:48;;;;;;;;;;;11.10;98.00;;;;;;5069043;28;19924;-90
2023/04/27 12:30:13;;;;;;;;;;;11.10;96.90;;;;;;5069645;28;19995;-91
2023/04/27 12:32:39;;;;;;;;;;;11.20;98.50;;;;;;5069701;28;19924;-93
2023/04/27 12:35:05;;;;;;;;;;;11.20;99.90;;;;;;5069028;28;19924;-91
2023/04/27 12:37:31;;;;;;;;;;;11.40;99.90;;;;;;5069901;28;20027;-92
2023/04/27 12:39:57;;;;;;;;;;;11.40;99.90;;;;;;5085757;28;19924;-91
2023/04/27 12:42:23;;;;;;;;;;;11.30;99.90;;;;;;5086511;28;20368;-92
2023/04/27 12:44:52;;;;;;;;;;;11.40;99.90;;;;;;5077411;28;19924;-91
2023/04/27 12:47:18;;;;;;;;;;;11.40;99.90;;;;;;5087001;28;19928;-92
2023/04/27 12:49:44;;;;;;;;;;;11.50;99.90;;;;;;5067918;28;20426;-92
2023/04/27 12:52:10;;;;;;;;;;;11.70;99.90;;;;;;5086970;28;19924;-90
2023/04/27 12:54:36;;;;;;;;;;;12.00;99.90;;;;;;5088980;28;19924;-90
2023/04/27 12:57:02;;;;;;;;;;;12.20;99.90;;;;;;5068339;28;19996;-91
2023/04/27 12:59:28;;;;;;;;;;;12.40;99.90;;;;;;5089769;28;19931;-90
2023/04/27 13:01:54;;;;;;;;;;;12.50;99.90;;;;;;5068591;28;20021;-93
2023/04/27 13:04:20;;;;;;;;;;;12.50;99.90;;;;;;5087140;28;19959;-91
2023/04/27 13:06:46;;;;;;;;;;;12.40;99.90;;;;;;5088577;28;19963;-91
2023/04/27 13:09:12;;;;;;;;;;;12.40;99.90;;;;;;5088183;28;19924;-92
2023/04/27 13:11:37;;;;;;;;;;;12.30;99.90;;;;;;5072792;28;19954;-90
2023/04/27 13:14:04;;;;;;;;;;;12.20;99.90;;;;;;5072656;28;19924;-91
2023/04/27 13:16:29;;;;;;;;;;;12.40;99.90;;;;;;5090129;28;19924;-91
2023/04/27 13:18:55;;;;;;;;;;;12.40;97.10;;;;;;5077254;28;19924;-91
2023/04/27 13:21:22;;;;;;;;;;;12.50;97.00;;;;;;5085723;28;19931;-91
2023/04/27 13:23:48;;;;;;;;;;;12.60;97.50;;;;;;5088747;28;20307;-91
2023/04/27 13:26:14;;;;;;;;;;;12.70;97.60;;;;;;5068950;28;19987;-90
2023/04/27 13:28:40;;;;;;;;;;;12.60;99.30;;;;;;5061497;28;19956;-90
2023/04/27 13:31:06;;;;;;;;;;;12.70;97.20;;;;;;5087491;28;19981;-90
2023/04/27 13:33:33;;;;;;;;;;;12.70;96.20;;;;;;5090297;28;19924;-89
2023/04/27 13:36:01;;;;;;;;;;;12.90;99.90;;;;;;5099381;28;19979;-91
2023/04/27 13:38:27;;;;;;;;;;;13.00;99.80;;;;;;5059592;28;19924;-91
2023/04/27 13:40:52;;;;;;;;;;;13.20;97.00;;;;;;5090268;28;19928;-91
2023/04/27 13:43:18;;;;;;;;;;;13.30;97.40;;;;;;5087252;28;19924;-91
2023/04/27 13:45:44;;;;;;;;;;;13.30;96.00;;;;;;5084729;28;19928;-90
2023/04/27 13:48:10;;;;;;;;;;;13.00;95.60;;;;;;5083460;28;19947;-91
2023/04/27 13:50:35;;;;;;;;;;;13.00;95.60;;;;;;5068349;28;19930;-90
2023/04/27 13:53:01;;;;;;;;;;;13.00;97.10;;;;;;5084120;28;19924;-91
2023/04/27 13:55:27;;;;;;;;;;;13.10;94.80;;;;;;5083020;28;19931;-91
2023/04/27 13:57:53;;;;;;;;;;;13.10;94.80;;;;;;5082032;28;19983;-90
2023/04/27 14:00:18;;;;;;;;;;;13.00;93.90;;;;;;5048212;28;20300;-91
2023/04/27 14:02:45;;;;;;;;;;;12.90;95.10;;;;;;5076789;28;19928;-91
2023/04/27 14:05:10;;;;;;;;;;;12.80;95.60;;;;;;5085399;28;19953;-92
2023/04/27 14:07:36;;;;;;;;;;;12.80;95.40;;;;;;5086904;28;19924;-91
2023/04/27 14:10:03;;;;;;;;;;;12.90;95.70;;;;;;5080569;28;19977;-91
2023/04/27 14:12:31;;;;;;;;;;;12.90;96.20;;;;;;5085454;28;19931;-91
2023/04/27 14:14:57;;;;;;;;;;;12.90;96.50;;;;;;5065509;28;19924;-91
2023/04/27 14:17:23;;;;;;;;;;;13.00;98.70;;;;;;5067469;28;20015;-92
2023/04/27 14:19:48;;;;;;;;;;;13.10;98.30;;;;;;5082554;28;19924;-90
2023/04/27 14:22:14;;;;;;;;;;;13.20;99.50;;;;;;5061438;28;19938;-91